createdAt,value
2023-04-22T00:01:01.314Z,81.80
2023-04-22T00:03:28.986Z,81.60
2023-04-22T00:05:56.562Z,81.60
2023-04-22T00:08:23.800Z,82.10
2023-04-22T00:10:51.216Z,81.60
2023-04-22T00:13:18.450Z,81.60
2023-04-22T00:15:45.626Z,82.20
2023-04-22T00:18:14.159Z,82.60
2023-04-22T00:20:45.014Z,82.00
2023-04-22T00:23:13.428Z,82.20
2023-04-22T00:25:41.290Z,82.50
2023-04-22T00:28:08.667Z,82.60
2023-04-22T00:30:36.432Z,82.00
2023-04-22T00:33:03.879Z,82.00
2023-04-22T00:35:31.040Z,81.80
2023-04-22T00:37:58.137Z,82.00
2023-04-22T00:40:25.383Z,82.00
2023-04-22T00:42:52.871Z,82.20
2023-04-22T00:45:21.699Z,82.50
2023-04-22T00:47:49.387Z,83.10
2023-04-22T00:50:16.956Z,83.30
2023-04-22T00:52:44.348Z,83.20
2023-04-22T00:55:12.293Z,82.90
2023-04-22T00:57:40.642Z,82.90
2023-04-22T01:00:10.257Z,82.50
2023-04-22T01:02:40.966Z,82.40
2023-04-22T01:05:09.691Z,82.30
2023-04-22T01:07:37.046Z,82.20
2023-04-22T01:10:05.111Z,82.20
2023-04-22T01:12:32.285Z,82.10
2023-04-22T01:14:59.805Z,82.00
2023-04-22T01:17:28.350Z,82.10
2023-04-22T01:19:55.709Z,82.00
2023-04-22T01:22:24.254Z,81.60
2023-04-22T01:24:51.506Z,81.60
2023-04-22T01:27:19.025Z,81.60
2023-04-22T01:29:46.563Z,81.60
2023-04-22T01:32:13.981Z,81.80
2023-04-22T01:34:41.198Z,81.90
2023-04-22T01:37:08.414Z,82.10
2023-04-22T01:39:36.015Z,82.00
2023-04-22T01:42:03.874Z,81.70
2023-04-22T01:44:30.992Z,81.60
2023-04-22T01:46:58.239Z,82.00
2023-04-22T01:49:25.415Z,82.10
2023-04-22T01:51:52.559Z,82.30
2023-04-22T01:54:21.004Z,82.00
2023-04-22T01:56:55.203Z,82.00
2023-04-22T01:59:22.879Z,82.10
2023-04-22T02:01:50.615Z,82.50
2023-04-22T02:04:19.212Z,83.30
2023-04-22T02:06:46.317Z,83.40
2023-04-22T02:09:13.509Z,83.10
2023-04-22T02:11:40.600Z,82.70
2023-04-22T02:14:07.807Z,82.30
2023-04-22T02:16:35.605Z,82.00
2023-04-22T02:19:02.757Z,82.30
2023-04-22T02:21:32.640Z,82.30
2023-04-22T02:24:00.188Z,82.20
2023-04-22T02:26:30.872Z,82.20
2023-04-22T02:28:58.393Z,82.00
2023-04-22T02:31:27.471Z,81.60
2023-04-22T02:33:55.896Z,81.60
2023-04-22T02:36:23.204Z,81.60
2023-04-22T02:38:50.959Z,81.40
2023-04-22T02:41:18.026Z,81.20
2023-04-22T02:43:46.178Z,81.40
2023-04-22T02:46:16.292Z,81.60
2023-04-22T02:48:43.770Z,81.80
2023-04-22T02:51:11.242Z,81.80
2023-04-22T02:53:38.579Z,82.50
2023-04-22T02:56:06.332Z,82.70
2023-04-22T02:58:33.503Z,82.70
2023-04-22T03:01:00.864Z,82.70
2023-04-22T03:03:28.135Z,82.40
2023-04-22T03:05:55.541Z,82.40
2023-04-22T03:08:23.650Z,82.50
2023-04-22T03:10:50.717Z,82.80
2023-04-22T03:13:17.810Z,82.90
2023-04-22T03:15:45.804Z,82.70
2023-04-22T03:18:12.966Z,82.20
2023-04-22T03:20:40.636Z,82.10
2023-04-22T03:23:08.978Z,82.10
2023-04-22T03:25:37.140Z,82.10
2023-04-22T03:28:04.999Z,81.90
2023-04-22T03:30:32.153Z,82.50
2023-04-22T03:32:59.640Z,82.60
2023-04-22T03:35:43.885Z,82.60
2023-04-22T03:38:12.062Z,82.90
2023-04-22T03:40:39.139Z,82.60
2023-04-22T03:43:17.277Z,82.70
2023-04-22T03:45:52.060Z,82.80
2023-04-22T03:48:23.780Z,82.20
2023-04-22T03:50:53.188Z,82.20
2023-04-22T03:53:20.274Z,82.90
2023-04-22T03:55:47.517Z,82.50
2023-04-22T03:58:15.837Z,82.10
2023-04-22T04:00:43.331Z,82.00
2023-04-22T04:03:15.679Z,82.10
2023-04-22T04:05:44.045Z,81.90
2023-04-22T04:08:11.298Z,82.70
2023-04-22T04:10:38.623Z,82.70
2023-04-22T04:13:06.342Z,82.50
2023-04-22T04:15:43.702Z,82.70
2023-04-22T04:18:11.983Z,82.80
2023-04-22T04:20:39.494Z,83.00
2023-04-22T04:23:06.706Z,83.20
2023-04-22T04:25:38.805Z,83.30
2023-04-22T04:28:11.305Z,82.90
2023-04-22T04:30:38.890Z,83.00
2023-04-22T04:33:10.212Z,83.50
2023-04-22T04:35:39.191Z,82.90
2023-04-22T04:38:07.888Z,82.50
2023-04-22T04:40:37.160Z,82.70
2023-04-22T04:43:30.575Z,82.80
2023-04-22T04:46:08.322Z,82.80
2023-04-22T04:48:37.617Z,82.70
2023-04-22T04:51:09.444Z,83.00
2023-04-22T04:53:42.229Z,82.80
2023-04-22T04:56:09.450Z,82.70
2023-04-22T04:58:36.793Z,83.50
2023-04-22T05:01:12.047Z,83.50
2023-04-22T05:03:39.475Z,83.70
2023-04-22T05:06:07.236Z,83.90
2023-04-22T05:08:36.416Z,84.10
2023-04-22T05:11:08.341Z,84.30
2023-04-22T05:13:35.506Z,84.10
2023-04-22T05:16:04.017Z,84.00
2023-04-22T05:18:31.757Z,83.50
2023-04-22T05:21:04.253Z,83.30
2023-04-22T05:23:33.047Z,83.30
2023-04-22T05:26:01.023Z,83.30
2023-04-22T05:28:28.243Z,83.10
2023-04-22T05:30:58.084Z,82.80
2023-04-22T05:33:28.904Z,83.00
2023-04-22T05:35:56.448Z,82.90
2023-04-22T05:38:24.093Z,83.20
2023-04-22T05:40:51.931Z,82.80
2023-04-22T05:43:20.041Z,83.00
2023-04-22T05:45:54.087Z,83.20
2023-04-22T05:48:21.848Z,82.60
2023-04-22T05:50:58.215Z,82.30
2023-04-22T05:53:28.324Z,82.70
2023-04-22T05:55:55.974Z,83.20
2023-04-22T05:58:24.300Z,82.10
2023-04-22T06:00:55.345Z,81.80
2023-04-22T06:03:40.931Z,81.00
2023-04-22T06:06:08.935Z,80.40
2023-04-22T06:08:36.053Z,80.80
2023-04-22T06:11:03.262Z,81.10
2023-04-22T06:13:33.278Z,81.20
2023-04-22T06:16:01.339Z,81.10
2023-04-22T06:18:29.173Z,81.40
2023-04-22T06:20:56.582Z,81.90
2023-04-22T06:23:23.715Z,82.00
2023-04-22T06:25:50.867Z,80.70
2023-04-22T06:28:18.312Z,81.30
2023-04-22T06:30:47.527Z,81.00
2023-04-22T06:33:15.064Z,80.80
2023-04-22T06:35:42.479Z,80.60
2023-04-22T06:38:09.682Z,80.20
2023-04-22T06:40:44.764Z,81.20
2023-04-22T06:43:32.155Z,81.60
2023-04-22T06:46:33.979Z,81.40
2023-04-22T06:49:27.229Z,81.00
2023-04-22T06:52:12.833Z,80.70
2023-04-22T06:54:40.115Z,80.80
2023-04-22T06:57:08.151Z,80.80
2023-04-22T06:59:35.267Z,82.10
2023-04-22T07:02:02.545Z,81.60
2023-04-22T07:04:32.812Z,81.80
2023-04-22T07:07:01.425Z,82.10
2023-04-22T07:09:29.323Z,80.70
2023-04-22T07:11:57.915Z,81.20
2023-04-22T07:14:29.317Z,81.30
2023-04-22T07:16:56.503Z,80.30
2023-04-22T07:19:23.687Z,80.60
2023-04-22T07:21:50.843Z,81.00
2023-04-22T07:24:17.867Z,80.10
2023-04-22T07:26:45.568Z,79.60
2023-04-22T07:29:15.646Z,79.60
2023-04-22T07:31:42.815Z,78.90
2023-04-22T07:34:10.807Z,80.00
2023-04-22T07:36:38.299Z,80.30
2023-04-22T07:39:05.568Z,80.50
2023-04-22T07:41:33.205Z,80.30
2023-04-22T07:44:00.669Z,77.60
2023-04-22T07:46:27.739Z,77.40
2023-04-22T07:48:54.991Z,77.90
2023-04-22T07:51:22.026Z,77.70
2023-04-22T07:53:49.186Z,78.90
2023-04-22T07:56:16.220Z,78.30
2023-04-22T07:58:43.410Z,77.50
2023-04-22T08:01:10.777Z,78.10
2023-04-22T08:03:38.028Z,78.20
2023-04-22T08:06:05.426Z,76.60
2023-04-22T08:08:32.478Z,76.80
2023-04-22T08:10:59.610Z,76.20
2023-04-22T08:13:26.679Z,75.50
2023-04-22T08:15:54.148Z,76.30
2023-04-22T08:18:21.318Z,74.70
2023-04-22T08:20:50.249Z,75.10
2023-04-22T08:23:19.590Z,75.60
2023-04-22T08:25:56.323Z,75.60
2023-04-22T08:28:26.276Z,76.00
2023-04-22T08:30:53.576Z,76.20
2023-04-22T08:33:20.627Z,76.00
2023-04-22T08:35:48.390Z,74.80
2023-04-22T08:38:15.736Z,74.80
2023-04-22T08:40:42.996Z,73.00
2023-04-22T08:43:10.467Z,74.30
2023-04-22T08:45:40.881Z,73.90
2023-04-22T08:48:09.884Z,74.80
2023-04-22T08:50:41.916Z,75.00
2023-04-22T08:53:09.083Z,73.10
2023-04-22T08:55:37.238Z,74.50
2023-04-22T08:58:06.238Z,73.10
2023-04-22T09:00:34.600Z,73.60
2023-04-22T09:03:03.745Z,73.90
2023-04-22T09:05:34.457Z,74.30
2023-04-22T09:08:03.143Z,73.70
2023-04-22T09:10:33.534Z,74.90
2023-04-22T09:13:03.611Z,73.70
2023-04-22T09:15:31.076Z,73.30
2023-04-22T09:17:58.697Z,74.20
2023-04-22T09:20:30.259Z,73.80
2023-04-22T09:23:04.196Z,74.70
2023-04-22T09:25:35.862Z,75.90
2023-04-22T09:28:03.406Z,76.20
2023-04-22T09:30:37.697Z,76.60
2023-04-22T09:33:08.388Z,76.00
2023-04-22T09:35:37.908Z,76.10
2023-04-22T09:38:08.284Z,76.80
2023-04-22T09:40:37.329Z,78.50
2023-04-22T09:43:08.110Z,78.70
2023-04-22T09:45:36.141Z,78.40
2023-04-22T09:48:15.796Z,78.40
2023-04-22T09:50:49.241Z,78.10
2023-04-22T09:53:19.787Z,79.10
2023-04-22T09:55:53.324Z,79.50
2023-04-22T09:58:23.984Z,79.80
2023-04-22T10:00:59.094Z,80.10
2023-04-22T10:03:26.456Z,80.80
2023-04-22T10:05:53.530Z,81.10
2023-04-22T10:08:20.691Z,80.90
2023-04-22T10:10:48.069Z,81.20
2023-04-22T10:13:15.261Z,81.60
2023-04-22T10:15:52.210Z,81.50
2023-04-22T10:18:28.022Z,82.10
2023-04-22T10:20:57.449Z,81.60
2023-04-22T10:23:25.737Z,81.50
2023-04-22T10:25:56.988Z,81.60
2023-04-22T10:28:28.309Z,81.70
2023-04-22T10:30:55.675Z,81.20
2023-04-22T10:33:28.483Z,80.50
2023-04-22T10:36:14.346Z,79.90
2023-04-22T10:38:54.953Z,79.50
2023-04-22T10:41:30.492Z,80.40
2023-04-22T10:44:08.399Z,79.20
2023-04-22T10:46:39.933Z,79.00
2023-04-22T10:49:13.078Z,79.20
2023-04-22T10:51:49.296Z,79.80
2023-04-22T10:54:37.611Z,80.70
2023-04-22T10:57:16.348Z,80.20
2023-04-22T10:59:56.144Z,81.30
2023-04-22T11:02:24.401Z,81.70
2023-04-22T11:04:54.469Z,80.80
2023-04-22T11:07:27.347Z,81.20
2023-04-22T11:10:07.023Z,81.70
2023-04-22T11:12:39.839Z,81.50
2023-04-22T11:15:19.917Z,80.60
2023-04-22T11:17:54.274Z,81.50
2023-04-22T11:20:22.210Z,80.90
2023-04-22T11:22:56.099Z,81.20
2023-04-22T11:25:25.702Z,80.80
2023-04-22T11:27:54.419Z,80.80
2023-04-22T11:30:27.088Z,81.00
2023-04-22T11:32:57.239Z,81.10
2023-04-22T11:35:35.359Z,80.80
2023-04-22T11:38:05.556Z,80.70
2023-04-22T11:40:38.534Z,81.00
2023-04-22T11:43:09.179Z,81.50
2023-04-22T11:45:38.505Z,81.90
2023-04-22T11:48:11.649Z,81.90
2023-04-22T11:50:41.760Z,81.90
2023-04-22T11:53:16.066Z,82.10
2023-04-22T11:55:45.686Z,81.70
2023-04-22T11:58:19.094Z,82.20
2023-04-22T12:00:49.645Z,82.50
2023-04-22T12:03:24.717Z,82.40
2023-04-22T12:06:01.254Z,82.10
2023-04-22T12:08:35.573Z,81.90
2023-04-22T12:11:06.450Z,82.20
2023-04-22T12:13:42.066Z,82.20
2023-04-22T12:16:20.337Z,82.80
2023-04-22T12:18:53.516Z,83.00
2023-04-22T12:21:28.334Z,83.20
2023-04-22T12:24:03.854Z,83.10
2023-04-22T12:26:31.618Z,82.90
2023-04-22T12:29:00.718Z,82.60
2023-04-22T12:31:28.280Z,82.50
2023-04-22T12:33:56.119Z,82.60
2023-04-22T12:36:23.829Z,82.40
2023-04-22T12:38:51.360Z,82.20
2023-04-22T12:41:18.671Z,81.80
2023-04-22T12:43:46.011Z,81.60
2023-04-22T12:46:13.245Z,80.60
2023-04-22T12:48:40.464Z,79.40
2023-04-22T12:51:07.689Z,80.00
2023-04-22T12:53:35.161Z,80.10
2023-04-22T12:56:02.296Z,79.60
2023-04-22T12:58:29.385Z,78.90
2023-04-22T13:00:56.623Z,79.20
2023-04-22T13:03:24.029Z,79.10
2023-04-22T13:05:52.612Z,79.60
2023-04-22T13:08:19.701Z,79.80
2023-04-22T13:10:46.872Z,80.40
2023-04-22T13:13:18.381Z,80.20
2023-04-22T13:15:50.035Z,79.70
2023-04-22T13:18:17.295Z,80.00
2023-04-22T13:20:44.546Z,79.80
2023-04-22T13:23:13.220Z,80.40
2023-04-22T13:25:40.724Z,80.50
2023-04-22T13:28:07.970Z,80.80
2023-04-22T13:30:35.013Z,81.00
2023-04-22T13:33:02.290Z,79.60
2023-04-22T13:35:29.448Z,79.30
2023-04-22T13:37:56.595Z,79.80
2023-04-22T13:40:24.080Z,79.80
2023-04-22T13:42:51.172Z,79.30
2023-04-22T13:45:18.353Z,80.00
2023-04-22T13:47:45.590Z,80.60
2023-04-22T13:50:12.857Z,79.80
2023-04-22T13:52:39.916Z,79.30
2023-04-22T13:55:07.846Z,80.20
2023-04-22T13:57:34.941Z,81.00
2023-04-22T14:00:02.396Z,80.90
2023-04-22T14:02:39.296Z,81.00
2023-04-22T14:05:07.488Z,81.20
2023-04-22T14:07:34.597Z,81.20
2023-04-22T14:10:01.723Z,81.20
2023-04-22T14:12:28.825Z,81.60
2023-04-22T14:14:55.859Z,81.30
2023-04-22T14:17:23.866Z,81.10
2023-04-22T14:19:50.973Z,81.60
2023-04-22T14:22:18.018Z,81.20
2023-04-22T14:24:45.220Z,80.70
2023-04-22T14:27:12.603Z,80.50
2023-04-22T14:29:40.197Z,80.30
2023-04-22T14:32:07.680Z,81.00
2023-04-22T14:34:34.813Z,80.10
2023-04-22T14:37:01.939Z,80.80
2023-04-22T14:39:29.017Z,80.90
2023-04-22T14:41:58.001Z,79.90
2023-04-22T14:44:25.245Z,80.70
2023-04-22T14:46:52.300Z,79.50
2023-04-22T14:49:19.469Z,80.30
2023-04-22T14:51:47.273Z,80.80
2023-04-22T14:54:14.478Z,80.30
2023-04-22T14:56:41.669Z,79.70
2023-04-22T14:59:08.879Z,80.00
2023-04-22T15:01:37.210Z,78.50
2023-04-22T15:04:04.475Z,79.20
2023-04-22T15:06:32.854Z,80.00
2023-04-22T15:09:00.257Z,77.90
2023-04-22T15:11:27.294Z,78.00
2023-04-22T15:13:54.322Z,78.30
2023-04-22T15:16:21.745Z,78.20
2023-04-22T15:18:48.941Z,77.90
2023-04-22T15:21:16.095Z,76.40
2023-04-22T15:23:43.197Z,77.70
2023-04-22T15:26:10.401Z,78.40
2023-04-22T15:28:37.586Z,78.00
2023-04-22T15:31:04.818Z,77.70
2023-04-22T15:33:31.903Z,78.00
2023-04-22T15:35:59.060Z,78.20
2023-04-22T15:38:26.414Z,78.30
2023-04-22T15:40:53.540Z,77.50
2023-04-22T15:43:20.565Z,78.90
2023-04-22T15:45:47.798Z,79.00
2023-04-22T15:48:15.005Z,78.00
2023-04-22T15:50:45.227Z,78.50
2023-04-22T15:53:12.329Z,78.90
2023-04-22T15:55:39.384Z,78.50
2023-04-22T15:58:06.544Z,79.00
2023-04-22T16:00:33.670Z,78.60
2023-04-22T16:03:01.061Z,78.70
2023-04-22T16:05:29.284Z,79.20
2023-04-22T16:07:56.487Z,76.70
2023-04-22T16:10:26.227Z,76.20
2023-04-22T16:12:53.393Z,76.30
2023-04-22T16:15:22.611Z,76.20
2023-04-22T16:17:49.930Z,77.50
2023-04-22T16:20:17.089Z,76.50
2023-04-22T16:22:44.262Z,77.10
2023-04-22T16:25:11.412Z,77.40
2023-04-22T16:27:38.607Z,76.60
2023-04-22T16:30:06.760Z,77.30
2023-04-22T16:32:33.937Z,78.60
2023-04-22T16:35:01.416Z,78.50
2023-04-22T16:37:28.514Z,78.00
2023-04-22T16:39:55.740Z,77.20
2023-04-22T16:42:22.805Z,75.90
2023-04-22T16:44:51.374Z,76.80
2023-04-22T16:47:19.186Z,76.10
2023-04-22T16:49:46.856Z,77.30
2023-04-22T16:52:13.940Z,77.30
2023-04-22T16:54:42.513Z,76.80
2023-04-22T16:57:11.437Z,76.10
2023-04-22T16:59:39.334Z,76.90
2023-04-22T17:02:06.627Z,75.50
2023-04-22T17:04:33.849Z,75.30
2023-04-22T17:07:01.053Z,75.50
2023-04-22T17:09:28.144Z,75.90
2023-04-22T17:11:56.564Z,75.80
2023-04-22T17:14:23.629Z,75.10
2023-04-22T17:16:51.159Z,75.30
2023-04-22T17:19:18.213Z,75.80
2023-04-22T17:21:45.403Z,76.10
2023-04-22T17:24:12.504Z,75.90
2023-04-22T17:26:39.796Z,76.10
2023-04-22T17:29:06.880Z,76.40
2023-04-22T17:31:34.445Z,76.60
2023-04-22T17:34:01.578Z,76.20
2023-04-22T17:36:28.750Z,77.20
2023-04-22T17:38:55.874Z,77.40
2023-04-22T17:41:23.445Z,77.60
2023-04-22T17:43:50.627Z,78.60
2023-04-22T17:46:17.775Z,77.70
2023-04-22T17:48:46.795Z,77.30
2023-04-22T17:51:14.273Z,78.10
2023-04-22T17:53:42.090Z,77.80
2023-04-22T17:56:10.456Z,78.50
2023-04-22T17:58:38.663Z,77.70
2023-04-22T18:01:07.060Z,77.70
2023-04-22T18:03:34.755Z,78.20
2023-04-22T18:06:02.157Z,78.80
2023-04-22T18:08:29.289Z,78.70
2023-04-22T18:10:56.400Z,78.90
2023-04-22T18:13:23.559Z,79.30
2023-04-22T18:15:50.662Z,79.50
2023-04-22T18:18:17.739Z,80.40
2023-04-22T18:20:45.701Z,80.60
2023-04-22T18:23:12.773Z,80.70
2023-04-22T18:25:40.082Z,80.60
2023-04-22T18:28:07.200Z,80.60
2023-04-22T18:30:34.406Z,80.80
2023-04-22T18:33:01.624Z,80.90
2023-04-22T18:35:28.952Z,80.80
2023-04-22T18:37:56.870Z,80.60
2023-04-22T18:40:24.262Z,81.00
2023-04-22T18:42:51.322Z,81.30
2023-04-22T18:45:18.417Z,81.50
2023-04-22T18:47:47.055Z,81.30
2023-04-22T18:50:14.407Z,81.00
2023-04-22T18:52:42.942Z,81.20
2023-04-22T18:55:10.253Z,81.40
2023-04-22T18:57:37.697Z,81.50
2023-04-22T19:00:06.384Z,81.40
2023-04-22T19:02:37.321Z,81.70
2023-04-22T19:05:06.495Z,82.10
2023-04-22T19:07:33.994Z,82.20
2023-04-22T19:10:01.110Z,82.30
2023-04-22T19:12:28.392Z,81.90
2023-04-22T19:14:55.752Z,82.40
2023-04-22T19:17:25.005Z,82.60
2023-04-22T19:19:52.354Z,82.30
2023-04-22T19:22:20.629Z,82.10
2023-04-22T19:24:48.302Z,82.30
2023-04-22T19:27:15.794Z,82.30
2023-04-22T19:29:44.125Z,82.60
2023-04-22T19:32:11.688Z,82.70
2023-04-22T19:34:39.422Z,82.50
2023-04-22T19:37:06.771Z,82.90
2023-04-22T19:39:34.118Z,82.50
2023-04-22T19:42:04.799Z,82.40
2023-04-22T19:44:32.255Z,82.20
2023-04-22T19:46:59.362Z,82.30
2023-04-22T19:49:27.676Z,82.60
2023-04-22T19:51:56.833Z,82.80
2023-04-22T19:54:28.185Z,83.00
2023-04-22T19:56:58.013Z,82.90
2023-04-22T19:59:25.545Z,83.00
2023-04-22T20:01:53.161Z,83.00
2023-04-22T20:04:21.784Z,82.80
2023-04-22T20:06:51.490Z,83.00
2023-04-22T20:09:19.185Z,83.00
2023-04-22T20:11:48.904Z,82.90
2023-04-22T20:14:17.354Z,82.80
2023-04-22T20:16:47.862Z,83.10
2023-04-22T20:19:15.543Z,83.20
2023-04-22T20:21:44.919Z,83.40
2023-04-22T20:24:19.644Z,83.60
2023-04-22T20:26:48.678Z,83.30
2023-04-22T20:29:18.658Z,83.20
2023-04-22T20:31:46.814Z,83.20
2023-04-22T20:34:14.276Z,83.20
2023-04-22T20:36:42.976Z,83.10
2023-04-22T20:39:14.251Z,83.20
2023-04-22T20:41:41.950Z,83.10
2023-04-22T20:44:09.295Z,82.80
2023-04-22T20:46:37.874Z,82.90
2023-04-22T20:49:05.043Z,83.00
2023-04-22T20:51:32.211Z,83.00
2023-04-22T20:53:59.380Z,83.30
2023-04-22T20:56:27.487Z,83.20
2023-04-22T20:58:54.583Z,83.30
2023-04-22T21:01:21.981Z,83.20
2023-04-22T21:03:54.959Z,83.10
2023-04-22T21:06:26.331Z,83.00
2023-04-22T21:08:54.961Z,83.50
2023-04-22T21:11:22.672Z,83.40
2023-04-22T21:13:51.000Z,83.40
2023-04-22T21:16:19.803Z,83.30
2023-04-22T21:18:48.475Z,83.30
2023-04-22T21:21:17.991Z,83.50
2023-04-22T21:23:45.668Z,83.60
2023-04-22T21:26:14.986Z,83.70
2023-04-22T21:28:42.647Z,83.70
2023-04-22T21:31:10.989Z,84.10
2023-04-22T21:33:38.203Z,84.30
2023-04-22T21:36:05.686Z,84.40
2023-04-22T21:38:33.269Z,83.70
2023-04-22T21:41:00.551Z,83.90
2023-04-22T21:43:27.872Z,83.50
2023-04-22T21:45:54.978Z,83.40
2023-04-22T21:48:22.360Z,83.30
2023-04-22T21:50:49.933Z,83.90
2023-04-22T21:53:19.478Z,84.00
2023-04-22T21:55:49.038Z,84.20
2023-04-22T21:58:16.095Z,83.80
2023-04-22T22:00:43.762Z,84.00
2023-04-22T22:03:12.626Z,84.20
2023-04-22T22:05:40.046Z,84.20
2023-04-22T22:08:07.352Z,84.60
2023-04-22T22:10:34.710Z,84.40
2023-04-22T22:13:02.000Z,84.30
2023-04-22T22:15:29.237Z,84.70
2023-04-22T22:17:56.735Z,84.30
2023-04-22T22:20:24.197Z,83.90
2023-04-22T22:22:51.509Z,83.60
2023-04-22T22:25:18.683Z,83.90
2023-04-22T22:27:48.640Z,84.20
2023-04-22T22:30:18.582Z,84.30
2023-04-22T22:32:45.823Z,84.40
2023-04-22T22:35:13.129Z,84.40
2023-04-22T22:37:41.179Z,84.40
2023-04-22T22:40:09.070Z,84.50
2023-04-22T22:42:36.271Z,84.40
2023-04-22T22:45:05.252Z,84.20
2023-04-22T22:47:33.012Z,84.10
2023-04-22T22:50:00.516Z,84.20
2023-04-22T22:52:27.910Z,84.20
2023-04-22T22:54:55.235Z,84.60
2023-04-22T22:57:22.337Z,84.80
2023-04-22T22:59:49.536Z,84.90
2023-04-22T23:02:17.231Z,84.80
2023-04-22T23:04:45.146Z,84.80
2023-04-22T23:07:14.581Z,84.50
2023-04-22T23:09:41.701Z,84.60
2023-04-22T23:12:08.746Z,84.50
2023-04-22T23:14:36.615Z,84.70
2023-04-22T23:17:03.960Z,84.70
2023-04-22T23:19:31.833Z,84.90
2023-04-22T23:21:59.186Z,85.30
2023-04-22T23:24:26.821Z,85.70
2023-04-22T23:26:54.261Z,85.30
2023-04-22T23:29:22.043Z,84.90
2023-04-22T23:31:51.316Z,84.70
2023-04-22T23:34:22.941Z,84.40
2023-04-22T23:36:50.686Z,85.40
2023-04-22T23:39:17.818Z,85.40
2023-04-22T23:41:45.215Z,85.30
2023-04-22T23:44:12.376Z,85.40
2023-04-22T23:46:39.614Z,85.30
2023-04-22T23:49:07.320Z,85.50
2023-04-22T23:51:35.133Z,86.00
2023-04-22T23:54:02.254Z,85.70
2023-04-22T23:56:29.759Z,85.90
2023-04-22T23:58:57.628Z,85.70
